sensor_id;sensor_type;location;lat;lon;timestamp;temperature;humidity
12622;DHT22;6376;48.182;-1.644;2022-09-09T00:03:57;19.80;81.40
12622;DHT22;6376;48.182;-1.644;2022-09-09T00:06:30;19.80;81.60
12622;DHT22;6376;48.182;-1.644;2022-09-09T00:09:19;19.80;81.60
12622;DHT22;6376;48.182;-1.644;2022-09-09T00:11:53;19.70;81.50
12622;DHT22;6376;48.182;-1.644;2022-09-09T00:14:50;19.80;81.60
12622;DHT22;6376;48.182;-1.644;2022-09-09T00:17:36;19.70;81.60
12622;DHT22;6376;48.182;-1.644;2022-09-09T00:20:39;19.80;81.70
12622;DHT22;6376;48.182;-1.644;2022-09-09T00:23:24;19.70;81.60
12622;DHT22;6376;48.182;-1.644;2022-09-09T00:28:26;19.70;81.70
12622;DHT22;6376;48.182;-1.644;2022-09-09T00:30:53;19.70;81.80
12622;DHT22;6376;48.182;-1.644;2022-09-09T00:33:22;19.70;81.80
12622;DHT22;6376;48.182;-1.644;2022-09-09T00:35:51;19.70;81.80
12622;DHT22;6376;48.182;-1.644;2022-09-09T00:38:22;19.70;82.50
12622;DHT22;6376;48.182;-1.644;2022-09-09T00:40:52;19.70;81.80
12622;DHT22;6376;48.182;-1.644;2022-09-09T00:43:36;19.70;81.80
12622;DHT22;6376;48.182;-1.644;2022-09-09T00:46:21;19.70;81.80
12622;DHT22;6376;48.182;-1.644;2022-09-09T00:49:00;19.70;81.80
12622;DHT22;6376;48.182;-1.644;2022-09-09T01:05:34;19.60;81.90
12622;DHT22;6376;48.182;-1.644;2022-09-09T01:08:03;19.60;81.90
12622;DHT22;6376;48.182;-1.644;2022-09-09T01:10:36;19.60;81.90
12622;DHT22;6376;48.182;-1.644;2022-09-09T01:13:14;19.60;81.90
12622;DHT22;6376;48.182;-1.644;2022-09-09T01:15:44;19.60;82.00
12622;DHT22;6376;48.182;-1.644;2022-09-09T01:18:14;19.60;81.90
12622;DHT22;6376;48.182;-1.644;2022-09-09T01:20:48;19.60;82.00
12622;DHT22;6376;48.182;-1.644;2022-09-09T01:28:54;19.60;82.10
12622;DHT22;6376;48.182;-1.644;2022-09-09T01:31:30;19.60;82.10
12622;DHT22;6376;48.182;-1.644;2022-09-09T01:33:57;19.60;82.10
12622;DHT22;6376;48.182;-1.644;2022-09-09T01:36:31;19.60;82.10
12622;DHT22;6376;48.182;-1.644;2022-09-09T01:38:59;19.60;82.10
12622;DHT22;6376;48.182;-1.644;2022-09-09T01:41:24;19.60;82.10
12622;DHT22;6376;48.182;-1.644;2022-09-09T01:43:50;19.60;82.10
12622;DHT22;6376;48.182;-1.644;2022-09-09T01:46:18;19.60;82.20
12622;DHT22;6376;48.182;-1.644;2022-09-09T01:48:46;19.60;82.10
12622;DHT22;6376;48.182;-1.644;2022-09-09T01:51:12;20.30;82.70
12622;DHT22;6376;48.182;-1.644;2022-09-09T01:53:39;19.60;82.20
12622;DHT22;6376;48.182;-1.644;2022-09-09T02:06:56;19.50;82.10
12622;DHT22;6376;48.182;-1.644;2022-09-09T02:09:26;19.50;82.20
12622;DHT22;6376;48.182;-1.644;2022-09-09T02:12:08;19.50;82.20
12622;DHT22;6376;48.182;-1.644;2022-09-09T02:14:41;19.50;82.20
12622;DHT22;6376;48.182;-1.644;2022-09-09T02:17:11;19.50;82.20
12622;DHT22;6376;48.182;-1.644;2022-09-09T02:19:41;19.50;82.20
12622;DHT22;6376;48.182;-1.644;2022-09-09T02:22:10;19.50;82.30
12622;DHT22;6376;48.182;-1.644;2022-09-09T02:24:38;19.50;83.00
12622;DHT22;6376;48.182;-1.644;2022-09-09T02:27:07;19.50;82.30
12622;DHT22;6376;48.182;-1.644;2022-09-09T02:29:37;19.50;82.20
12622;DHT22;6376;48.182;-1.644;2022-09-09T02:32:06;19.50;82.30
12622;DHT22;6376;48.182;-1.644;2022-09-09T02:34:36;19.50;82.30
12622;DHT22;6376;48.182;-1.644;2022-09-09T02:37:04;19.50;82.30
12622;DHT22;6376;48.182;-1.644;2022-09-09T02:39:31;19.50;82.40
12622;DHT22;6376;48.182;-1.644;2022-09-09T02:41:57;19.50;82.20
12622;DHT22;6376;48.182;-1.644;2022-09-09T02:44:23;19.50;82.40
12622;DHT22;6376;48.182;-1.644;2022-09-09T02:52:59;19.50;82.40
12622;DHT22;6376;48.182;-1.644;2022-09-09T02:58:04;19.50;82.40
12622;DHT22;6376;48.182;-1.644;2022-09-09T03:00:31;19.50;82.30
12622;DHT22;6376;48.182;-1.644;2022-09-09T03:02:58;19.50;82.40
12622;DHT22;6376;48.182;-1.644;2022-09-09T03:05:24;19.50;82.40
12622;DHT22;6376;48.182;-1.644;2022-09-09T03:07:49;19.50;82.40
12622;DHT22;6376;48.182;-1.644;2022-09-09T03:10:16;19.50;82.40
12622;DHT22;6376;48.182;-1.644;2022-09-09T03:12:42;19.50;82.40
12622;DHT22;6376;48.182;-1.644;2022-09-09T03:15:08;19.50;82.40
12622;DHT22;6376;48.182;-1.644;2022-09-09T03:17:35;19.50;82.40
12622;DHT22;6376;48.182;-1.644;2022-09-09T03:20:02;19.50;82.40
12622;DHT22;6376;48.182;-1.644;2022-09-09T03:22:28;19.50;82.50
12622;DHT22;6376;48.182;-1.644;2022-09-09T03:24:54;19.50;82.40
12622;DHT22;6376;48.182;-1.644;2022-09-09T03:27:19;19.50;82.40
12622;DHT22;6376;48.182;-1.644;2022-09-09T03:29:46;19.40;82.40
12622;DHT22;6376;48.182;-1.644;2022-09-09T03:32:11;19.40;82.40
12622;DHT22;6376;48.182;-1.644;2022-09-09T03:34:37;19.50;82.40
12622;DHT22;6376;48.182;-1.644;2022-09-09T03:37:06;19.50;82.40
12622;DHT22;6376;48.182;-1.644;2022-09-09T03:39:32;19.40;82.40
12622;DHT22;6376;48.182;-1.644;2022-09-09T03:41:58;19.40;82.40
12622;DHT22;6376;48.182;-1.644;2022-09-09T03:44:23;19.40;82.40
12622;DHT22;6376;48.182;-1.644;2022-09-09T03:46:49;19.40;82.40
12622;DHT22;6376;48.182;-1.644;2022-09-09T03:49:14;19.40;82.40
12622;DHT22;6376;48.182;-1.644;2022-09-09T03:51:41;19.40;82.40
12622;DHT22;6376;48.182;-1.644;2022-09-09T03:54:07;19.40;82.40
12622;DHT22;6376;48.182;-1.644;2022-09-09T03:56:35;19.40;82.40
12622;DHT22;6376;48.182;-1.644;2022-09-09T03:59:01;19.40;82.50
12622;DHT22;6376;48.182;-1.644;2022-09-09T04:01:27;19.40;82.40
12622;DHT22;6376;48.182;-1.644;2022-09-09T04:03:53;19.40;82.40
12622;DHT22;6376;48.182;-1.644;2022-09-09T04:06:20;19.40;82.40
12622;DHT22;6376;48.182;-1.644;2022-09-09T04:08:46;19.40;82.50
12622;DHT22;6376;48.182;-1.644;2022-09-09T04:11:14;19.40;82.40
12622;DHT22;6376;48.182;-1.644;2022-09-09T04:13:40;19.40;82.40
12622;DHT22;6376;48.182;-1.644;2022-09-09T04:16:08;19.40;82.50
12622;DHT22;6376;48.182;-1.644;2022-09-09T04:18:34;19.40;82.40
12622;DHT22;6376;48.182;-1.644;2022-09-09T04:21:00;19.40;82.50
12622;DHT22;6376;48.182;-1.644;2022-09-09T04:23:27;19.40;82.50
12622;DHT22;6376;48.182;-1.644;2022-09-09T04:25:58;19.40;82.50
12622;DHT22;6376;48.182;-1.644;2022-09-09T04:28:25;19.40;82.50
12622;DHT22;6376;48.182;-1.644;2022-09-09T04:30:51;19.40;82.50
12622;DHT22;6376;48.182;-1.644;2022-09-09T04:33:18;19.40;82.50
12622;DHT22;6376;48.182;-1.644;2022-09-09T04:35:46;19.30;82.40
12622;DHT22;6376;48.182;-1.644;2022-09-09T04:38:13;19.40;82.50
12622;DHT22;6376;48.182;-1.644;2022-09-09T04:40:41;19.40;82.50
12622;DHT22;6376;48.182;-1.644;2022-09-09T04:43:08;19.30;82.40
12622;DHT22;6376;48.182;-1.644;2022-09-09T04:45:34;19.40;82.50
12622;DHT22;6376;48.182;-1.644;2022-09-09T04:48:00;19.40;82.50
12622;DHT22;6376;48.182;-1.644;2022-09-09T04:50:26;19.30;82.40
12622;DHT22;6376;48.182;-1.644;2022-09-09T04:52:52;19.30;82.40
12622;DHT22;6376;48.182;-1.644;2022-09-09T04:55:17;19.30;82.50
12622;DHT22;6376;48.182;-1.644;2022-09-09T04:57:43;19.30;82.40
12622;DHT22;6376;48.182;-1.644;2022-09-09T05:00:09;19.30;82.40
12622;DHT22;6376;48.182;-1.644;2022-09-09T05:02:39;19.30;82.50
12622;DHT22;6376;48.182;-1.644;2022-09-09T05:05:05;19.30;82.60
12622;DHT22;6376;48.182;-1.644;2022-09-09T05:07:31;19.30;82.50
12622;DHT22;6376;48.182;-1.644;2022-09-09T05:09:57;19.30;82.60
12622;DHT22;6376;48.182;-1.644;2022-09-09T05:12:23;19.30;82.60
12622;DHT22;6376;48.182;-1.644;2022-09-09T05:14:51;19.30;82.50
12622;DHT22;6376;48.182;-1.644;2022-09-09T05:17:17;19.30;82.60
12622;DHT22;6376;48.182;-1.644;2022-09-09T05:19:43;19.30;82.70
12622;DHT22;6376;48.182;-1.644;2022-09-09T05:22:09;19.30;82.70
12622;DHT22;6376;48.182;-1.644;2022-09-09T05:24:36;19.30;82.70
12622;DHT22;6376;48.182;-1.644;2022-09-09T05:27:02;19.30;82.50
12622;DHT22;6376;48.182;-1.644;2022-09-09T05:29:28;19.30;82.50
12622;DHT22;6376;48.182;-1.644;2022-09-09T05:31:53;19.30;82.50
12622;DHT22;6376;48.182;-1.644;2022-09-09T05:34:19;19.30;83.40
12622;DHT22;6376;48.182;-1.644;2022-09-09T05:36:46;19.30;82.50
12622;DHT22;6376;48.182;-1.644;2022-09-09T05:39:12;19.30;82.60
12622;DHT22;6376;48.182;-1.644;2022-09-09T05:41:38;19.30;82.70
12622;DHT22;6376;48.182;-1.644;2022-09-09T05:44:04;19.30;82.70
12622;DHT22;6376;48.182;-1.644;2022-09-09T05:46:30;19.30;82.70
12622;DHT22;6376;48.182;-1.644;2022-09-09T05:48:56;19.30;82.70
12622;DHT22;6376;48.182;-1.644;2022-09-09T05:51:26;19.30;82.60
12622;DHT22;6376;48.182;-1.644;2022-09-09T05:53:53;19.30;82.70
12622;DHT22;6376;48.182;-1.644;2022-09-09T05:56:23;19.30;82.80
12622;DHT22;6376;48.182;-1.644;2022-09-09T05:58:51;19.30;82.70
12622;DHT22;6376;48.182;-1.644;2022-09-09T06:01:23;19.30;82.80
12622;DHT22;6376;48.182;-1.644;2022-09-09T06:03:49;19.20;82.70
12622;DHT22;6376;48.182;-1.644;2022-09-09T06:06:18;19.20;82.70
12622;DHT22;6376;48.182;-1.644;2022-09-09T06:08:46;19.30;82.70
12622;DHT22;6376;48.182;-1.644;2022-09-09T06:11:20;19.20;82.70
12622;DHT22;6376;48.182;-1.644;2022-09-09T06:13:47;19.20;82.70
12622;DHT22;6376;48.182;-1.644;2022-09-09T06:16:15;19.30;82.80
12622;DHT22;6376;48.182;-1.644;2022-09-09T06:18:42;19.20;82.80
12622;DHT22;6376;48.182;-1.644;2022-09-09T06:21:28;19.20;82.70
12622;DHT22;6376;48.182;-1.644;2022-09-09T06:23:55;19.20;82.70
12622;DHT22;6376;48.182;-1.644;2022-09-09T06:26:26;19.20;82.70
12622;DHT22;6376;48.182;-1.644;2022-09-09T06:28:54;19.20;82.70
12622;DHT22;6376;48.182;-1.644;2022-09-09T06:31:22;19.20;82.70
12622;DHT22;6376;48.182;-1.644;2022-09-09T06:33:50;19.20;82.70
12622;DHT22;6376;48.182;-1.644;2022-09-09T06:36:21;19.20;82.70
12622;DHT22;6376;48.182;-1.644;2022-09-09T06:38:47;19.20;82.80
12622;DHT22;6376;48.182;-1.644;2022-09-09T06:41:15;19.20;82.70
12622;DHT22;6376;48.182;-1.644;2022-09-09T06:43:42;19.20;82.70
12622;DHT22;6376;48.182;-1.644;2022-09-09T06:46:11;19.20;82.70
12622;DHT22;6376;48.182;-1.644;2022-09-09T06:48:39;19.20;82.70
12622;DHT22;6376;48.182;-1.644;2022-09-09T06:51:07;19.20;82.60
12622;DHT22;6376;48.182;-1.644;2022-09-09T06:53:34;19.20;82.70
12622;DHT22;6376;48.182;-1.644;2022-09-09T06:58:49;19.20;82.70
12622;DHT22;6376;48.182;-1.644;2022-09-09T07:01:19;19.20;82.60
12622;DHT22;6376;48.182;-1.644;2022-09-09T07:03:48;19.30;82.70
12622;DHT22;6376;48.182;-1.644;2022-09-09T07:06:19;19.30;82.50
12622;DHT22;6376;48.182;-1.644;2022-09-09T07:08:53;19.30;83.30
12622;DHT22;6376;48.182;-1.644;2022-09-09T07:11:20;19.30;82.40
12622;DHT22;6376;48.182;-1.644;2022-09-09T07:13:47;19.30;82.40
12622;DHT22;6376;48.182;-1.644;2022-09-09T07:16:15;19.30;82.40
12622;DHT22;6376;48.182;-1.644;2022-09-09T07:18:42;19.30;82.40
12622;DHT22;6376;48.182;-1.644;2022-09-09T07:21:11;19.30;82.40
12622;DHT22;6376;48.182;-1.644;2022-09-09T07:23:37;19.30;82.20
12622;DHT22;6376;48.182;-1.644;2022-09-09T07:26:19;19.30;82.20
12622;DHT22;6376;48.182;-1.644;2022-09-09T07:28:45;19.90;82.60
12622;DHT22;6376;48.182;-1.644;2022-09-09T07:31:18;19.30;82.30
12622;DHT22;6376;48.182;-1.644;2022-09-09T07:33:46;19.30;82.20
12622;DHT22;6376;48.182;-1.644;2022-09-09T07:36:21;19.30;82.20
12622;DHT22;6376;48.182;-1.644;2022-09-09T07:38:50;19.30;82.20
12622;DHT22;6376;48.182;-1.644;2022-09-09T07:41:22;19.30;82.30
12622;DHT22;6376;48.182;-1.644;2022-09-09T07:43:49;19.30;82.30
12622;DHT22;6376;48.182;-1.644;2022-09-09T07:46:17;19.30;82.30
12622;DHT22;6376;48.182;-1.644;2022-09-09T07:48:50;19.30;82.20
12622;DHT22;6376;48.182;-1.644;2022-09-09T07:51:18;19.30;82.20
12622;DHT22;6376;48.182;-1.644;2022-09-09T07:53:46;19.30;82.20
12622;DHT22;6376;48.182;-1.644;2022-09-09T07:56:14;19.30;82.10
12622;DHT22;6376;48.182;-1.644;2022-09-09T07:58:44;19.30;82.10
12622;DHT22;6376;48.182;-1.644;2022-09-09T08:03:44;19.40;82.50
12622;DHT22;6376;48.182;-1.644;2022-09-09T08:06:10;19.50;82.60
12622;DHT22;6376;48.182;-1.644;2022-09-09T08:08:38;19.50;81.90
12622;DHT22;6376;48.182;-1.644;2022-09-09T08:11:14;19.60;81.50
12622;DHT22;6376;48.182;-1.644;2022-09-09T08:13:41;19.70;81.10
12622;DHT22;6376;48.182;-1.644;2022-09-09T08:18:38;19.60;81.20
12622;DHT22;6376;48.182;-1.644;2022-09-09T08:21:15;19.50;81.10
12622;DHT22;6376;48.182;-1.644;2022-09-09T08:23:44;19.50;81.20
12622;DHT22;6376;48.182;-1.644;2022-09-09T08:28:39;19.50;81.10
12622;DHT22;6376;48.182;-1.644;2022-09-09T08:31:14;19.50;81.10
12622;DHT22;6376;48.182;-1.644;2022-09-09T08:33:40;19.50;81.30
12622;DHT22;6376;48.182;-1.644;2022-09-09T08:36:08;19.50;81.50
12622;DHT22;6376;48.182;-1.644;2022-09-09T08:38:34;19.40;81.40
12622;DHT22;6376;48.182;-1.644;2022-09-09T08:43:33;19.50;81.50
12622;DHT22;6376;48.182;-1.644;2022-09-09T08:46:12;19.50;81.60
12622;DHT22;6376;48.182;-1.644;2022-09-09T08:49:12;19.50;81.60
12622;DHT22;6376;48.182;-1.644;2022-09-09T08:51:42;19.50;81.80
12622;DHT22;6376;48.182;-1.644;2022-09-09T08:54:09;19.50;81.70
12622;DHT22;6376;48.182;-1.644;2022-09-09T08:56:36;19.50;81.60
12622;DHT22;6376;48.182;-1.644;2022-09-09T08:59:02;19.60;81.50
12622;DHT22;6376;48.182;-1.644;2022-09-09T09:04:33;19.60;81.30
12622;DHT22;6376;48.182;-1.644;2022-09-09T09:12:17;20.30;78.80
12622;DHT22;6376;48.182;-1.644;2022-09-09T09:14:46;20.10;78.90
12622;DHT22;6376;48.182;-1.644;2022-09-09T09:17:20;20.00;79.40
12622;DHT22;6376;48.182;-1.644;2022-09-09T09:19:48;19.90;79.60
12622;DHT22;6376;48.182;-1.644;2022-09-09T09:24:54;20.00;79.40
12622;DHT22;6376;48.182;-1.644;2022-09-09T09:30:12;20.10;78.90
12622;DHT22;6376;48.182;-1.644;2022-09-09T09:32:47;20.20;78.60
12622;DHT22;6376;48.182;-1.644;2022-09-09T09:35:14;20.20;78.30
12622;DHT22;6376;48.182;-1.644;2022-09-09T09:37:41;20.30;78.10
12622;DHT22;6376;48.182;-1.644;2022-09-09T09:40:14;20.40;77.50
12622;DHT22;6376;48.182;-1.644;2022-09-09T09:45:28;20.60;77.20
12622;DHT22;6376;48.182;-1.644;2022-09-09T09:48:05;20.50;77.20
12622;DHT22;6376;48.182;-1.644;2022-09-09T09:50:31;20.50;77.20
12622;DHT22;6376;48.182;-1.644;2022-09-09T09:53:00;20.40;77.40
12622;DHT22;6376;48.182;-1.644;2022-09-09T09:55:28;20.40;77.70
12622;DHT22;6376;48.182;-1.644;2022-09-09T09:58:06;20.40;77.80
12622;DHT22;6376;48.182;-1.644;2022-09-09T10:00:51;20.40;77.50
12622;DHT22;6376;48.182;-1.644;2022-09-09T10:03:29;20.50;77.00
12622;DHT22;6376;48.182;-1.644;2022-09-09T10:05:55;20.60;76.60
12622;DHT22;6376;48.182;-1.644;2022-09-09T10:08:25;20.70;76.30
12622;DHT22;6376;48.182;-1.644;2022-09-09T10:19:46;20.90;75.30
12622;DHT22;6376;48.182;-1.644;2022-09-09T10:22:26;20.90;75.30
12622;DHT22;6376;48.182;-1.644;2022-09-09T10:30:18;20.70;76.30
12622;DHT22;6376;48.182;-1.644;2022-09-09T10:35:25;20.70;76.50
12622;DHT22;6376;48.182;-1.644;2022-09-09T10:43:52;20.80;76.10
12622;DHT22;6376;48.182;-1.644;2022-09-09T10:49:18;20.70;76.20
12622;DHT22;6376;48.182;-1.644;2022-09-09T10:52:21;20.70;76.30
12622;DHT22;6376;48.182;-1.644;2022-09-09T10:55:10;20.70;76.30
12622;DHT22;6376;48.182;-1.644;2022-09-09T10:57:40;20.60;76.50
12622;DHT22;6376;48.182;-1.644;2022-09-09T11:00:19;20.70;76.40
12622;DHT22;6376;48.182;-1.644;2022-09-09T11:02:51;20.70;76.30
12622;DHT22;6376;48.182;-1.644;2022-09-09T11:05:29;20.70;76.40
12622;DHT22;6376;48.182;-1.644;2022-09-09T11:08:06;20.60;76.50
12622;DHT22;6376;48.182;-1.644;2022-09-09T11:13:56;20.70;76.20
12622;DHT22;6376;48.182;-1.644;2022-09-09T11:21:48;20.90;75.50
12622;DHT22;6376;48.182;-1.644;2022-09-09T11:24:20;21.00;75.30
12622;DHT22;6376;48.182;-1.644;2022-09-09T11:26:53;21.00;74.90
12622;DHT22;6376;48.182;-1.644;2022-09-09T11:29:37;21.00;75.20
12622;DHT22;6376;48.182;-1.644;2022-09-09T11:40:25;20.90;75.40
12622;DHT22;6376;48.182;-1.644;2022-09-09T11:43:08;21.00;75.20
12622;DHT22;6376;48.182;-1.644;2022-09-09T11:45:35;21.00;75.10
12622;DHT22;6376;48.182;-1.644;2022-09-09T11:48:03;21.00;75.20
12622;DHT22;6376;48.182;-1.644;2022-09-09T11:50:35;20.90;75.30
12622;DHT22;6376;48.182;-1.644;2022-09-09T11:55:39;21.00;75.50
12622;DHT22;6376;48.182;-1.644;2022-09-09T11:58:16;20.90;75.50
12622;DHT22;6376;48.182;-1.644;2022-09-09T12:00:44;20.90;75.50
12622;DHT22;6376;48.182;-1.644;2022-09-09T12:03:48;20.90;75.50
12622;DHT22;6376;48.182;-1.644;2022-09-09T12:06:33;20.90;75.60
12622;DHT22;6376;48.182;-1.644;2022-09-09T12:09:54;20.90;75.60
12622;DHT22;6376;48.182;-1.644;2022-09-09T12:17:46;20.80;75.60
12622;DHT22;6376;48.182;-1.644;2022-09-09T12:20:35;20.80;75.70
12622;DHT22;6376;48.182;-1.644;2022-09-09T12:23:25;20.80;75.80
12622;DHT22;6376;48.182;-1.644;2022-09-09T12:33:48;20.80;75.80
12622;DHT22;6376;48.182;-1.644;2022-09-09T12:36:27;20.80;75.90
12622;DHT22;6376;48.182;-1.644;2022-09-09T12:38:54;20.80;75.80
12622;DHT22;6376;48.182;-1.644;2022-09-09T12:41:24;20.80;75.80
12622;DHT22;6376;48.182;-1.644;2022-09-09T12:44:02;20.90;75.80
12622;DHT22;6376;48.182;-1.644;2022-09-09T12:46:42;20.80;75.80
12622;DHT22;6376;48.182;-1.644;2022-09-09T12:49:32;20.90;75.90
12622;DHT22;6376;48.182;-1.644;2022-09-09T12:52:02;20.90;75.80
12622;DHT22;6376;48.182;-1.644;2022-09-09T12:54:31;20.80;75.80
12622;DHT22;6376;48.182;-1.644;2022-09-09T12:56:58;20.90;75.80
12622;DHT22;6376;48.182;-1.644;2022-09-09T12:59:36;20.90;75.70
12622;DHT22;6376;48.182;-1.644;2022-09-09T13:02:02;20.90;75.70
12622;DHT22;6376;48.182;-1.644;2022-09-09T13:04:31;20.90;75.70
12622;DHT22;6376;48.182;-1.644;2022-09-09T13:07:06;22.50;76.90
12622;DHT22;6376;48.182;-1.644;2022-09-09T13:09:32;20.90;75.80
12622;DHT22;6376;48.182;-1.644;2022-09-09T13:11:58;20.90;75.90
12622;DHT22;6376;48.182;-1.644;2022-09-09T13:14:35;20.90;75.90
12622;DHT22;6376;48.182;-1.644;2022-09-09T13:17:04;20.90;75.90
12622;DHT22;6376;48.182;-1.644;2022-09-09T13:19:38;20.90;76.20
12622;DHT22;6376;48.182;-1.644;2022-09-09T13:25:13;20.80;76.20
12622;DHT22;6376;48.182;-1.644;2022-09-09T13:27:53;20.80;76.30
12622;DHT22;6376;48.182;-1.644;2022-09-09T13:30:24;20.80;76.40
12622;DHT22;6376;48.182;-1.644;2022-09-09T13:36:07;20.80;76.50
12622;DHT22;6376;48.182;-1.644;2022-09-09T13:38:40;20.80;76.50
12622;DHT22;6376;48.182;-1.644;2022-09-09T13:41:08;20.80;76.70
12622;DHT22;6376;48.182;-1.644;2022-09-09T13:43:38;20.80;76.80
12622;DHT22;6376;48.182;-1.644;2022-09-09T13:46:32;20.80;76.90
12622;DHT22;6376;48.182;-1.644;2022-09-09T13:51:35;20.80;76.90
12622;DHT22;6376;48.182;-1.644;2022-09-09T13:54:06;20.80;77.10
12622;DHT22;6376;48.182;-1.644;2022-09-09T13:56:35;20.70;77.00
12622;DHT22;6376;48.182;-1.644;2022-09-09T13:59:01;20.70;77.20
12622;DHT22;6376;48.182;-1.644;2022-09-09T14:01:27;20.70;77.10
12622;DHT22;6376;48.182;-1.644;2022-09-09T14:03:54;20.70;77.40
12622;DHT22;6376;48.182;-1.644;2022-09-09T14:06:19;20.70;77.40
12622;DHT22;6376;48.182;-1.644;2022-09-09T14:08:47;20.60;77.50
12622;DHT22;6376;48.182;-1.644;2022-09-09T14:11:14;20.50;77.60
12622;DHT22;6376;48.182;-1.644;2022-09-09T14:13:40;20.50;78.00
12622;DHT22;6376;48.182;-1.644;2022-09-09T14:16:06;20.50;78.00
12622;DHT22;6376;48.182;-1.644;2022-09-09T14:18:31;20.60;77.90
12622;DHT22;6376;48.182;-1.644;2022-09-09T14:20:57;20.60;77.80
12622;DHT22;6376;48.182;-1.644;2022-09-09T14:23:24;20.70;78.00
12622;DHT22;6376;48.182;-1.644;2022-09-09T14:25:51;20.70;77.70
12622;DHT22;6376;48.182;-1.644;2022-09-09T14:28:20;20.60;77.40
12622;DHT22;6376;48.182;-1.644;2022-09-09T14:30:45;20.70;77.40
12622;DHT22;6376;48.182;-1.644;2022-09-09T14:33:14;20.70;77.30
12622;DHT22;6376;48.182;-1.644;2022-09-09T14:35:41;20.60;77.40
12622;DHT22;6376;48.182;-1.644;2022-09-09T14:38:07;20.60;77.50
12622;DHT22;6376;48.182;-1.644;2022-09-09T14:40:35;20.60;77.50
12622;DHT22;6376;48.182;-1.644;2022-09-09T14:43:01;20.70;77.50
12622;DHT22;6376;48.182;-1.644;2022-09-09T14:45:27;20.60;77.50
12622;DHT22;6376;48.182;-1.644;2022-09-09T14:47:54;20.70;77.50
12622;DHT22;6376;48.182;-1.644;2022-09-09T14:50:20;20.60;77.50
12622;DHT22;6376;48.182;-1.644;2022-09-09T14:52:46;20.60;77.50
12622;DHT22;6376;48.182;-1.644;2022-09-09T14:55:13;20.60;77.70
12622;DHT22;6376;48.182;-1.644;2022-09-09T14:57:39;20.60;77.60
12622;DHT22;6376;48.182;-1.644;2022-09-09T15:00:07;20.60;77.50
12622;DHT22;6376;48.182;-1.644;2022-09-09T15:02:36;20.60;78.20
12622;DHT22;6376;48.182;-1.644;2022-09-09T15:05:01;20.60;77.40
12622;DHT22;6376;48.182;-1.644;2022-09-09T15:07:27;20.60;77.40
12622;DHT22;6376;48.182;-1.644;2022-09-09T15:09:54;20.60;77.40
12622;DHT22;6376;48.182;-1.644;2022-09-09T15:12:20;20.70;77.20
12622;DHT22;6376;48.182;-1.644;2022-09-09T15:14:46;20.70;77.10
12622;DHT22;6376;48.182;-1.644;2022-09-09T15:17:15;20.70;77.10
12622;DHT22;6376;48.182;-1.644;2022-09-09T15:19:40;20.70;77.10
12622;DHT22;6376;48.182;-1.644;2022-09-09T15:22:08;20.70;77.10
12622;DHT22;6376;48.182;-1.644;2022-09-09T15:24:34;20.70;77.10
12622;DHT22;6376;48.182;-1.644;2022-09-09T15:27:01;20.70;77.20
12622;DHT22;6376;48.182;-1.644;2022-09-09T15:29:27;20.60;77.20
12622;DHT22;6376;48.182;-1.644;2022-09-09T15:31:56;20.60;77.20
12622;DHT22;6376;48.182;-1.644;2022-09-09T15:34:22;20.70;77.20
12622;DHT22;6376;48.182;-1.644;2022-09-09T15:36:48;20.60;77.30
12622;DHT22;6376;48.182;-1.644;2022-09-09T15:39:17;20.60;77.20
12622;DHT22;6376;48.182;-1.644;2022-09-09T15:41:45;20.60;77.40
12622;DHT22;6376;48.182;-1.644;2022-09-09T15:44:11;20.60;77.40
12622;DHT22;6376;48.182;-1.644;2022-09-09T15:46:43;20.60;77.40
12622;DHT22;6376;48.182;-1.644;2022-09-09T15:49:31;20.60;77.20
12622;DHT22;6376;48.182;-1.644;2022-09-09T15:51:58;20.70;77.10
12622;DHT22;6376;48.182;-1.644;2022-09-09T15:54:26;20.70;77.20
12622;DHT22;6376;48.182;-1.644;2022-09-09T15:56:55;20.70;77.20
12622;DHT22;6376;48.182;-1.644;2022-09-09T15:59:22;20.70;77.20
12622;DHT22;6376;48.182;-1.644;2022-09-09T16:01:48;20.70;77.20
12622;DHT22;6376;48.182;-1.644;2022-09-09T16:04:19;20.60;77.20
12622;DHT22;6376;48.182;-1.644;2022-09-09T16:07:00;20.70;77.20
12622;DHT22;6376;48.182;-1.644;2022-09-09T16:09:27;20.60;77.20
12622;DHT22;6376;48.182;-1.644;2022-09-09T16:11:55;20.60;77.20
12622;DHT22;6376;48.182;-1.644;2022-09-09T16:14:21;20.60;77.20
12622;DHT22;6376;48.182;-1.644;2022-09-09T16:16:47;20.60;77.20
12622;DHT22;6376;48.182;-1.644;2022-09-09T16:19:13;20.60;77.10
12622;DHT22;6376;48.182;-1.644;2022-09-09T16:21:45;20.70;77.20
12622;DHT22;6376;48.182;-1.644;2022-09-09T16:24:14;20.60;77.10
12622;DHT22;6376;48.182;-1.644;2022-09-09T16:26:42;20.70;77.20
12622;DHT22;6376;48.182;-1.644;2022-09-09T16:29:11;20.70;77.10
12622;DHT22;6376;48.182;-1.644;2022-09-09T16:31:37;20.70;77.10
12622;DHT22;6376;48.182;-1.644;2022-09-09T16:34:03;20.70;77.10
12622;DHT22;6376;48.182;-1.644;2022-09-09T16:36:31;20.70;76.90
12622;DHT22;6376;48.182;-1.644;2022-09-09T16:39:00;20.70;77.00
12622;DHT22;6376;48.182;-1.644;2022-09-09T16:41:27;20.70;76.90
12622;DHT22;6376;48.182;-1.644;2022-09-09T16:43:54;20.70;76.90
12622;DHT22;6376;48.182;-1.644;2022-09-09T16:46:22;20.70;76.90
12622;DHT22;6376;48.182;-1.644;2022-09-09T16:48:50;20.70;77.00
12622;DHT22;6376;48.182;-1.644;2022-09-09T16:51:23;20.60;76.80
12622;DHT22;6376;48.182;-1.644;2022-09-09T16:53:49;20.60;77.00
12622;DHT22;6376;48.182;-1.644;2022-09-09T16:56:20;20.60;77.10
12622;DHT22;6376;48.182;-1.644;2022-09-09T16:58:54;20.60;77.10
12622;DHT22;6376;48.182;-1.644;2022-09-09T17:01:24;20.60;77.30
12622;DHT22;6376;48.182;-1.644;2022-09-09T17:03:58;20.50;77.20
12622;DHT22;6376;48.182;-1.644;2022-09-09T17:06:24;20.50;77.30
12622;DHT22;6376;48.182;-1.644;2022-09-09T17:09:02;20.50;77.30
12622;DHT22;6376;48.182;-1.644;2022-09-09T17:11:28;20.50;77.50
12622;DHT22;6376;48.182;-1.644;2022-09-09T17:13:55;20.40;77.50
12622;DHT22;6376;48.182;-1.644;2022-09-09T17:16:23;20.40;77.70
12622;DHT22;6376;48.182;-1.644;2022-09-09T17:18:50;20.40;77.70
12622;DHT22;6376;48.182;-1.644;2022-09-09T17:21:19;20.40;77.70
12622;DHT22;6376;48.182;-1.644;2022-09-09T17:23:46;20.40;77.80
12622;DHT22;6376;48.182;-1.644;2022-09-09T17:26:14;20.40;77.80
12622;DHT22;6376;48.182;-1.644;2022-09-09T17:28:41;20.40;77.90
12622;DHT22;6376;48.182;-1.644;2022-09-09T17:31:09;20.30;77.90
12622;DHT22;6376;48.182;-1.644;2022-09-09T17:33:39;20.30;77.90
12622;DHT22;6376;48.182;-1.644;2022-09-09T17:36:13;20.30;77.90
12622;DHT22;6376;48.182;-1.644;2022-09-09T17:38:40;20.30;77.90
12622;DHT22;6376;48.182;-1.644;2022-09-09T17:41:10;20.30;78.00
12622;DHT22;6376;48.182;-1.644;2022-09-09T17:43:37;20.30;78.00
12622;DHT22;6376;48.182;-1.644;2022-09-09T17:48:37;20.20;78.00
12622;DHT22;6376;48.182;-1.644;2022-09-09T17:51:04;20.20;78.00
12622;DHT22;6376;48.182;-1.644;2022-09-09T17:53:35;20.20;78.00
12622;DHT22;6376;48.182;-1.644;2022-09-09T17:56:06;20.20;78.00
12622;DHT22;6376;48.182;-1.644;2022-09-09T17:58:32;20.20;78.00
12622;DHT22;6376;48.182;-1.644;2022-09-09T18:01:03;20.20;78.20
12622;DHT22;6376;48.182;-1.644;2022-09-09T18:03:30;20.20;78.10
12622;DHT22;6376;48.182;-1.644;2022-09-09T18:06:04;20.20;78.10
12622;DHT22;6376;48.182;-1.644;2022-09-09T18:08:31;20.20;78.10
12622;DHT22;6376;48.182;-1.644;2022-09-09T18:10:57;20.20;78.20